Warning: Javascript must be enabled to use all the features on this page!


Page Loading - Please Wait...

Click to hideNews Bulletins

USGS 04189260 Blanchard River at Ottawa OH

PROVISIONAL DATA SUBJECT TO REVISION

Click to hidestation-specific text
Station operated in cooperation with the Village of Ottawa and the Groundwater and Streamflow Information Program
 04189260 Blanchard River at Ottawa, OH
 LOCATION.--Lat 41°01'01", long 84°02'49", Putnam County, OH, Hydrologic 
     Unit 04100008, on right bank at downstream side of Oak Street, 200 ft. upstream 
     of B&O railroad bridge, 800 ft. upstream of SR65 bridge, 1,200 ft. southeast of 
     intersection of SR65 and US RT224 in the village of Ottawa, OH.
 DRAINAGE AREA.--628 mi2.
 PERIOD OF RECORD.--October 2009 to current water year.
Want to learn more about areas near this gage that are inundated during flooding? See the USGS flood-inundation mapper.

Boating safety tips
Available Parameters Available Period
All 2 Available Parameters for this site
  
00060 Discharge 2009-10-01  2017-06-25
00065 Gage height 2017-02-25  2017-06-25

Graph
Graph w/ stats
Graph w/o stats
Graph w/ (up to 3) parms
Table
Tab-separated
Days  (7)
 

  -- or --
Begin date
 

End date
 

Summary of all available data for this site
Instantaneous-data availability statement
Gage height, feet
TIMEJun 18Jun 19Jun 20Jun 21Jun 22Jun 23Jun 24Jun 25
00:00 EDT8.33P  7.56P  7.01P  7.31P  6.52P  6.10P  6.86P  6.97P  
00:30 EDT8.33P  7.54P  7.03P  7.28P  6.51P  6.09P  6.89P  6.95P  
01:00 EDT8.34P  7.51P  7.06P  7.26P  6.50P  6.08P  6.91P  6.93P  
01:30 EDT8.33P  7.50P  7.09P  7.24P  6.49P  6.07P  6.94P  6.91P  
02:00 EDT8.33P  7.48P  7.12P  7.22P  6.48P  6.06P  6.97P  6.89P  
02:30 EDT8.33P  7.45P  7.15P  7.19P  6.47P  6.06P  6.99P  6.88P  
03:00 EDT8.31P  7.43P  7.19P  7.18P  6.46P  6.05P  7.03P  6.87P  
03:30 EDT8.31P  7.41P  7.24P  7.15P  6.44P  6.05P  7.06P  6.86P  
04:00 EDT8.31P  7.39P  7.28P  7.13P  6.43P  6.04P  7.09P  6.85P  
04:30 EDT8.29P  7.37P  7.31P  7.11P  6.43P  6.04P  7.12P  6.85P  
05:00 EDT8.29P  7.35P  7.35P  7.09P  6.42P  6.03P  7.16P  6.85P  
05:30 EDT8.27P  7.33P  7.39P  7.07P  6.41P  6.03P  7.19P  6.85P  
06:00 EDT8.26P  7.31P  7.43P  7.05P  6.40P  6.03P  7.24P  6.86P  
06:30 EDT8.25P  7.29P  7.48P  7.03P  6.40P  6.03P  7.28P  6.87P  
07:00 EDT8.24P  7.27P  7.51P  7.01P  6.39P  6.02P  7.31P   
07:30 EDT8.22P  7.26P  7.54P  6.99P  6.38P  6.02P  7.34P   
08:00 EDT8.21P  7.25P  7.57P  6.97P  6.37P  6.02P  7.37P   
08:30 EDT8.20P  7.23P  7.59P  6.96P  6.36P  6.13P  7.40P   
09:00 EDT8.17P  7.21P  7.61P  6.94P  6.36P  6.23P  7.42P   
09:30 EDT8.16P  7.20P  7.64P  6.92P  6.35P  6.24P  7.44P   
10:00 EDT8.15P  7.19P  7.65P  6.90P  6.34P  6.25P  7.45P   
10:30 EDT8.13P  7.17P  7.66P  6.89P  6.34P  6.25P  7.46P   
11:00 EDT8.10P  7.15P  7.67P  6.87P  6.33P  6.26P  7.47P   
11:30 EDT8.08P  7.14P  7.68P  6.85P  6.33P  6.26P  7.48P   
12:00 EDT8.06P  7.13P  7.68P  6.84P  6.32P  6.26P  7.47P   
12:30 EDT8.04P  7.11P  7.69P  6.82P  6.31P  6.27P  7.47P   
13:00 EDT8.03P  7.10P  7.69P  6.81P  6.30P  6.28P  7.46P   
13:30 EDT8.01P  7.08P  7.68P  6.79P  6.30P  6.30P  7.46P   
14:00 EDT7.99P  7.07P  7.68P  6.78P  6.29P  6.32P  7.44P   
14:30 EDT7.97P  7.05P  7.67P  6.76P  6.28P  6.34P  7.43P   
15:00 EDT7.95P  7.04P  7.66P  6.75P  6.28P  6.36P  7.41P   
15:30 EDT7.93P  7.03P  7.65P  6.73P  6.27P  6.38P  7.39P   
16:00 EDT7.91P  7.01P  7.65P  6.72P  6.26P  6.39P  7.37P   
16:30 EDT7.89P  7.01P  7.63P  6.71P  6.25P  6.43P  7.35P   
17:00 EDT7.87P  6.99P  7.61P  6.69P  6.24P  6.46P  7.33P   
17:30 EDT7.86P  6.98P  7.59P  6.68P  6.23P  6.48P  7.31P   
18:00 EDT7.84P  6.96P  7.58P  6.67P  6.21P  6.50P  7.27P   
18:30 EDT7.81P  6.96P  7.55P  6.65P  6.20P  6.54P  7.26P   
19:00 EDT7.79P  6.95P  7.54P  6.64P  6.19P  6.57P  7.23P   
19:30 EDT7.76P  6.95P  7.51P  6.62P  6.18P  6.59P  7.20P   
20:00 EDT7.75P  6.94P  7.50P  6.62P  6.16P  6.62P  7.17P   
20:30 EDT7.73P  6.94P  7.47P  6.61P  6.16P  6.65P  7.14P   
21:00 EDT7.70P  6.94P  7.45P  6.59P  6.15P  6.69P  7.12P   
21:30 EDT7.68P  6.94P  7.43P  6.58P  6.14P  6.72P  7.09P   
22:00 EDT7.65P  6.95P  7.41P  6.57P  6.13P  6.75P  7.07P   
22:30 EDT7.63P  6.96P  7.38P  6.56P  6.12P  6.78P  7.05P   
23:00 EDT7.61P  6.97P  7.36P  6.54P  6.11P  6.81P  7.02P   
23:30 EDT7.59P  6.99P  7.33P  6.54P  6.10P  6.83P  7.00P   
COUNT4848484848484814
MAX8.347.567.697.316.526.837.486.97
MIN7.596.947.016.546.106.026.866.85

Explanation
  P  Provisional data subject to revision.